Aérodrome :
LOGIN :

S'inscrire | Disclaimer

   EN    FR    IT 

 










Légende :    VFR   VFR Marginal   IFR   IFR Intensif   IFR Très Intensif
Visi : 
Plafond : 
>= 8 km
>= 3000ft
5 à 8 km
1000 à 3000 ft
1500m à 5 km
500 à 1000 ft
800 à 1500m
200 à 500 ft
< 800m
< 200 ft
Symboles :   Orages  Brouillard  Fortes neiges  Fortes précipitations  Vent > 20 kt
SIGMETs :   Divers  Orages  Givrage  Turbulence  Onde Orograph.  Cendres Volcan.






- Altitude de l'aérodrome : 32 ft
- Code IATA : LKZ


EGUL - RAF Lakenheath

DERNIER METAR :
  • 260141Z AUTO 17004KT 9999 OVC007 06/06 A2991 RMK AO2 SLP132 $

METARs EXPIRÉS :
  • 260056Z AUTO 18006KT 9999 OVC006 05/05 A2993 RMK AO2 SLP139 T00530053 $
  • 252356Z AUTO 16009KT 9999 OVC006 05/05 A2994 RMK AO2 SLP142 T00490049 10056 20045 400660045 57015 $
  • 252326Z AUTO 16010KT 9999 OVC006 05/05 A2994 RMK AO2 CIG 004V006 CIG 005 RWY06 SLP142 $
  • 252256Z AUTO 18007KT 6000 BR OVC004 05/05 A2995 RMK AO2 SLP146 T00450045 $

Prévision TAF périmée.



MET'MAP, la Météo Aéronautique d'un coup d'oeil ! - Copyright ORBIFLY Décembre 2007 - Disclaimer

ORBIFLY MET'MAP TEAM :

Programmation & Développement : Alexandra Zaïnal
Sur une idée originale de : Baudouin d'Aumeries
Assistance à la programmation : Marc-Olivier Méhu
Soutien technique & logistique : Manuel Goepfert

Contact : metmap@orbifly.com




SOURCES & CREDITS :

   NOAA